Terminal Aerodrome Forecast
Issued by NWS Jackson, KY

Home | Current Version | Previous Version | Text Only | Print | Product List | Glossary On
Versions: 1 2 3 4 5 6 7 8 9 10 11 12 13 14 15
066
FTUS43 KJKL 161726
TAFLOZ
TAF
KLOZ 161726Z 1618/1718 01010G15KT P6SM BKN045
     FM162300 VRB04KT P6SM FEW250
     FM170900 VRB03KT 5SM BR SKC
     FM171300 VRB03KT P6SM FEW250=

USA.gov is the U.S. government's official web portal to all federal, state and local government web resources and services.